sensor_id;sensor_type;location;lat;lon;timestamp;pressure;altitude;pressure_sealevel;temperature;humidity
829;BME280;396;52.558;13.188;2022-10-15T00:00:44;100362.47;;;14.37;100.00
829;BME280;396;52.558;13.188;2022-10-15T00:03:12;100359.41;;;14.39;100.00
829;BME280;396;52.558;13.188;2022-10-15T00:05:39;100357.16;;;14.41;100.00
829;BME280;396;52.558;13.188;2022-10-15T00:08:08;100343.38;;;14.37;100.00
829;BME280;396;52.558;13.188;2022-10-15T00:10:35;100346.97;;;14.29;100.00
829;BME280;396;52.558;13.188;2022-10-15T00:13:02;100337.19;;;14.28;100.00
829;BME280;396;52.558;13.188;2022-10-15T00:15:28;100334.03;;;14.26;100.00
829;BME280;396;52.558;13.188;2022-10-15T00:17:55;100331.31;;;14.26;100.00
829;BME280;396;52.558;13.188;2022-10-15T00:20:21;100340.91;;;14.24;100.00
829;BME280;396;52.558;13.188;2022-10-15T00:22:48;100340.78;;;14.20;100.00
829;BME280;396;52.558;13.188;2022-10-15T00:25:16;100339.66;;;14.21;100.00
829;BME280;396;52.558;13.188;2022-10-15T00:27:42;100334.22;;;14.21;100.00
829;BME280;396;52.558;13.188;2022-10-15T00:30:09;100321.41;;;14.22;100.00
829;BME280;396;52.558;13.188;2022-10-15T00:32:36;100333.59;;;14.16;100.00
829;BME280;396;52.558;13.188;2022-10-15T00:35:03;100328.94;;;14.16;100.00
829;BME280;396;52.558;13.188;2022-10-15T00:37:29;100325.56;;;14.19;100.00
829;BME280;396;52.558;13.188;2022-10-15T00:39:56;100325.91;;;14.18;100.00
829;BME280;396;52.558;13.188;2022-10-15T00:42:24;100321.72;;;14.20;100.00
829;BME280;396;52.558;13.188;2022-10-15T00:44:53;100320.59;;;14.21;100.00
829;BME280;396;52.558;13.188;2022-10-15T00:47:25;100319.84;;;14.12;100.00
829;BME280;396;52.558;13.188;2022-10-15T00:50:02;100314.59;;;14.07;100.00
829;BME280;396;52.558;13.188;2022-10-15T00:52:35;100319.09;;;14.03;100.00
829;BME280;396;52.558;13.188;2022-10-15T00:55:06;100303.25;;;14.05;100.00
829;BME280;396;52.558;13.188;2022-10-15T00:57:35;100301.47;;;14.09;100.00
829;BME280;396;52.558;13.188;2022-10-15T01:00:07;100300.38;;;14.01;100.00
829;BME280;396;52.558;13.188;2022-10-15T01:02:34;100306.63;;;14.02;100.00
829;BME280;396;52.558;13.188;2022-10-15T01:05:00;100300.53;;;14.05;100.00
829;BME280;396;52.558;13.188;2022-10-15T01:07:27;100293.94;;;14.06;100.00
829;BME280;396;52.558;13.188;2022-10-15T01:09:54;100285.13;;;14.09;100.00
829;BME280;396;52.558;13.188;2022-10-15T01:12:27;100286.84;;;14.13;100.00
829;BME280;396;52.558;13.188;2022-10-15T01:15:04;100289.72;;;14.17;100.00
829;BME280;396;52.558;13.188;2022-10-15T01:17:39;100288.56;;;14.18;100.00
829;BME280;396;52.558;13.188;2022-10-15T01:20:33;100284.72;;;14.19;100.00
829;BME280;396;52.558;13.188;2022-10-15T01:23:17;100281.00;;;14.24;100.00
829;BME280;396;52.558;13.188;2022-10-15T01:26:01;100277.03;;;14.21;100.00
829;BME280;396;52.558;13.188;2022-10-15T01:28:41;100270.88;;;14.24;100.00
829;BME280;396;52.558;13.188;2022-10-15T01:31:19;100267.72;;;14.22;100.00
829;BME280;396;52.558;13.188;2022-10-15T01:33:51;100266.22;;;14.25;100.00
829;BME280;396;52.558;13.188;2022-10-15T01:36:29;100267.03;;;14.25;100.00
829;BME280;396;52.558;13.188;2022-10-15T01:39:01;100256.81;;;14.22;100.00
829;BME280;396;52.558;13.188;2022-10-15T01:41:36;100260.78;;;14.25;100.00
829;BME280;396;52.558;13.188;2022-10-15T01:44:09;100264.13;;;14.30;100.00
829;BME280;396;52.558;13.188;2022-10-15T01:46:40;100262.50;;;14.29;100.00
829;BME280;396;52.558;13.188;2022-10-15T01:49:12;100261.06;;;14.32;100.00
829;BME280;396;52.558;13.188;2022-10-15T01:51:39;100255.16;;;14.30;100.00
829;BME280;396;52.558;13.188;2022-10-15T01:54:11;100257.06;;;14.29;100.00
829;BME280;396;52.558;13.188;2022-10-15T01:56:39;100256.94;;;14.26;100.00
829;BME280;396;52.558;13.188;2022-10-15T01:59:08;100254.75;;;14.19;100.00
829;BME280;396;52.558;13.188;2022-10-15T02:01:35;100243.84;;;14.19;100.00
829;BME280;396;52.558;13.188;2022-10-15T02:04:16;100241.78;;;14.16;100.00
829;BME280;396;52.558;13.188;2022-10-15T02:06:44;100234.75;;;14.15;100.00
829;BME280;396;52.558;13.188;2022-10-15T02:09:15;100244.63;;;14.20;100.00
829;BME280;396;52.558;13.188;2022-10-15T02:11:54;100241.59;;;14.21;100.00
829;BME280;396;52.558;13.188;2022-10-15T02:14:28;100238.53;;;14.23;100.00
829;BME280;396;52.558;13.188;2022-10-15T02:17:05;100243.63;;;14.24;100.00
829;BME280;396;52.558;13.188;2022-10-15T02:19:40;100237.53;;;14.27;100.00
829;BME280;396;52.558;13.188;2022-10-15T02:22:12;100237.97;;;14.29;100.00
829;BME280;396;52.558;13.188;2022-10-15T02:24:42;100241.41;;;14.26;100.00
829;BME280;396;52.558;13.188;2022-10-15T02:27:12;100240.91;;;14.24;100.00
829;BME280;396;52.558;13.188;2022-10-15T02:29:43;100236.16;;;14.21;100.00
829;BME280;396;52.558;13.188;2022-10-15T02:32:12;100242.06;;;14.23;100.00
829;BME280;396;52.558;13.188;2022-10-15T02:34:43;100238.66;;;14.26;100.00
829;BME280;396;52.558;13.188;2022-10-15T02:37:11;100225.03;;;14.26;100.00
829;BME280;396;52.558;13.188;2022-10-15T02:39:39;100229.00;;;14.29;100.00
829;BME280;396;52.558;13.188;2022-10-15T02:42:05;100224.34;;;14.29;100.00
829;BME280;396;52.558;13.188;2022-10-15T02:44:32;100219.38;;;14.31;100.00
829;BME280;396;52.558;13.188;2022-10-15T02:46:58;100222.13;;;14.31;100.00
829;BME280;396;52.558;13.188;2022-10-15T02:49:25;100214.38;;;14.33;100.00
829;BME280;396;52.558;13.188;2022-10-15T02:51:52;100215.19;;;14.34;100.00
829;BME280;396;52.558;13.188;2022-10-15T02:54:19;100219.03;;;14.33;100.00
829;BME280;396;52.558;13.188;2022-10-15T02:56:46;100221.31;;;14.31;100.00
829;BME280;396;52.558;13.188;2022-10-15T02:59:12;100213.00;;;14.27;100.00
829;BME280;396;52.558;13.188;2022-10-15T03:01:39;100218.47;;;14.27;100.00
829;BME280;396;52.558;13.188;2022-10-15T03:04:05;100215.25;;;14.25;100.00
829;BME280;396;52.558;13.188;2022-10-15T03:06:32;100216.88;;;14.26;100.00
829;BME280;396;52.558;13.188;2022-10-15T03:08:59;100211.63;;;14.21;100.00
829;BME280;396;52.558;13.188;2022-10-15T03:11:26;100210.03;;;14.20;100.00
829;BME280;396;52.558;13.188;2022-10-15T03:13:52;100205.38;;;14.21;100.00
829;BME280;396;52.558;13.188;2022-10-15T03:16:19;100214.69;;;14.20;100.00
829;BME280;396;52.558;13.188;2022-10-15T03:18:45;100213.22;;;14.22;100.00
829;BME280;396;52.558;13.188;2022-10-15T03:21:12;100208.56;;;14.23;100.00
829;BME280;396;52.558;13.188;2022-10-15T03:23:38;100199.72;;;14.26;100.00
829;BME280;396;52.558;13.188;2022-10-15T03:26:07;100198.47;;;14.23;100.00
829;BME280;396;52.558;13.188;2022-10-15T03:28:34;100195.94;;;14.18;100.00
829;BME280;396;52.558;13.188;2022-10-15T03:31:00;100188.66;;;14.10;100.00
829;BME280;396;52.558;13.188;2022-10-15T03:33:26;100198.63;;;14.06;100.00
829;BME280;396;52.558;13.188;2022-10-15T03:35:54;100196.38;;;14.08;100.00
829;BME280;396;52.558;13.188;2022-10-15T03:38:21;100191.81;;;14.12;100.00
829;BME280;396;52.558;13.188;2022-10-15T03:40:48;100188.13;;;14.17;100.00
829;BME280;396;52.558;13.188;2022-10-15T03:43:15;100194.16;;;14.22;100.00
829;BME280;396;52.558;13.188;2022-10-15T03:45:42;100189.16;;;14.24;100.00
829;BME280;396;52.558;13.188;2022-10-15T03:48:08;100192.56;;;14.21;100.00
829;BME280;396;52.558;13.188;2022-10-15T03:50:35;100196.53;;;14.24;100.00
829;BME280;396;52.558;13.188;2022-10-15T03:53:02;100197.66;;;14.23;100.00
829;BME280;396;52.558;13.188;2022-10-15T03:55:29;100184.06;;;14.23;100.00
829;BME280;396;52.558;13.188;2022-10-15T03:57:55;100186.78;;;14.23;100.00
829;BME280;396;52.558;13.188;2022-10-15T04:00:23;100191.44;;;14.22;100.00
829;BME280;396;52.558;13.188;2022-10-15T04:02:49;100186.28;;;14.21;100.00
829;BME280;396;52.558;13.188;2022-10-15T04:05:16;100188.22;;;14.20;100.00
829;BME280;396;52.558;13.188;2022-10-15T04:07:42;100187.78;;;14.18;100.00
829;BME280;396;52.558;13.188;2022-10-15T04:10:09;100190.84;;;14.17;100.00
829;BME280;396;52.558;13.188;2022-10-15T04:12:35;100194.75;;;14.07;100.00
829;BME280;396;52.558;13.188;2022-10-15T04:15:02;100201.34;;;14.06;100.00
829;BME280;396;52.558;13.188;2022-10-15T04:17:30;100198.63;;;14.06;100.00
829;BME280;396;52.558;13.188;2022-10-15T04:19:56;100197.81;;;14.05;100.00
829;BME280;396;52.558;13.188;2022-10-15T04:22:23;100190.00;;;14.04;100.00
829;BME280;396;52.558;13.188;2022-10-15T04:24:49;100197.81;;;14.05;100.00
829;BME280;396;52.558;13.188;2022-10-15T04:27:16;100195.44;;;14.04;100.00
829;BME280;396;52.558;13.188;2022-10-15T04:29:42;100196.56;;;14.03;100.00
829;BME280;396;52.558;13.188;2022-10-15T04:32:11;100192.59;;;14.00;100.00
829;BME280;396;52.558;13.188;2022-10-15T04:34:40;100194.72;;;13.95;100.00
829;BME280;396;52.558;13.188;2022-10-15T04:37:06;100196.50;;;13.91;100.00
829;BME280;396;52.558;13.188;2022-10-15T04:39:33;100199.69;;;13.93;100.00
829;BME280;396;52.558;13.188;2022-10-15T04:41:59;100204.47;;;13.96;100.00
829;BME280;396;52.558;13.188;2022-10-15T04:44:25;100208.00;;;13.96;100.00
829;BME280;396;52.558;13.188;2022-10-15T04:46:52;100209.25;;;13.99;100.00
829;BME280;396;52.558;13.188;2022-10-15T04:49:18;100211.00;;;14.03;100.00
829;BME280;396;52.558;13.188;2022-10-15T04:51:46;100207.94;;;14.05;100.00
829;BME280;396;52.558;13.188;2022-10-15T04:54:13;100210.66;;;14.05;100.00
829;BME280;396;52.558;13.188;2022-10-15T04:56:39;100206.13;;;14.09;100.00
829;BME280;396;52.558;13.188;2022-10-15T04:59:06;100207.72;;;14.10;100.00
829;BME280;396;52.558;13.188;2022-10-15T05:01:33;100210.56;;;14.13;100.00
829;BME280;396;52.558;13.188;2022-10-15T05:04:00;100204.00;;;14.14;100.00
829;BME280;396;52.558;13.188;2022-10-15T05:06:26;100208.84;;;14.09;100.00
829;BME280;396;52.558;13.188;2022-10-15T05:08:54;100208.13;;;14.00;100.00
829;BME280;396;52.558;13.188;2022-10-15T05:11:22;100204.47;;;13.96;100.00
829;BME280;396;52.558;13.188;2022-10-15T05:13:49;100207.72;;;13.89;100.00
829;BME280;396;52.558;13.188;2022-10-15T05:16:17;100211.13;;;13.86;100.00
829;BME280;396;52.558;13.188;2022-10-15T05:18:45;100202.47;;;13.84;100.00
829;BME280;396;52.558;13.188;2022-10-15T05:21:12;100203.28;;;13.84;100.00
829;BME280;396;52.558;13.188;2022-10-15T05:23:39;100204.41;;;13.83;100.00
829;BME280;396;52.558;13.188;2022-10-15T05:26:11;100208.91;;;13.79;100.00
829;BME280;396;52.558;13.188;2022-10-15T05:28:38;100207.19;;;13.75;100.00
829;BME280;396;52.558;13.188;2022-10-15T05:31:05;100209.31;;;13.69;100.00
829;BME280;396;52.558;13.188;2022-10-15T05:33:31;100209.84;;;13.62;100.00
829;BME280;396;52.558;13.188;2022-10-15T05:36:07;100218.69;;;13.59;100.00
829;BME280;396;52.558;13.188;2022-10-15T05:38:34;100225.56;;;13.57;100.00
829;BME280;396;52.558;13.188;2022-10-15T05:41:00;100230.88;;;13.53;100.00
829;BME280;396;52.558;13.188;2022-10-15T05:43:28;100229.00;;;13.45;100.00
829;BME280;396;52.558;13.188;2022-10-15T05:45:55;100226.16;;;13.42;100.00
829;BME280;396;52.558;13.188;2022-10-15T05:48:21;100228.72;;;13.38;100.00
829;BME280;396;52.558;13.188;2022-10-15T05:50:48;100223.13;;;13.34;100.00
829;BME280;396;52.558;13.188;2022-10-15T05:53:14;100232.63;;;13.28;100.00
829;BME280;396;52.558;13.188;2022-10-15T05:55:41;100230.88;;;13.24;100.00
829;BME280;396;52.558;13.188;2022-10-15T05:58:07;100231.50;;;13.21;100.00
829;BME280;396;52.558;13.188;2022-10-15T06:00:35;100236.44;;;13.19;100.00
829;BME280;396;52.558;13.188;2022-10-15T06:03:03;100244.00;;;13.13;100.00
829;BME280;396;52.558;13.188;2022-10-15T06:05:31;100238.09;;;13.11;100.00
829;BME280;396;52.558;13.188;2022-10-15T06:07:57;100241.47;;;13.08;100.00
829;BME280;396;52.558;13.188;2022-10-15T06:10:23;100249.16;;;13.06;100.00
829;BME280;396;52.558;13.188;2022-10-15T06:12:52;100239.72;;;13.03;100.00
829;BME280;396;52.558;13.188;2022-10-15T06:15:18;100248.34;;;13.05;100.00
829;BME280;396;52.558;13.188;2022-10-15T06:17:46;100252.03;;;13.01;100.00
829;BME280;396;52.558;13.188;2022-10-15T06:20:13;100257.47;;;13.01;100.00
829;BME280;396;52.558;13.188;2022-10-15T06:22:39;100262.28;;;13.04;100.00
829;BME280;396;52.558;13.188;2022-10-15T06:25:07;100257.31;;;13.06;100.00
829;BME280;396;52.558;13.188;2022-10-15T06:27:33;100264.19;;;13.03;100.00
829;BME280;396;52.558;13.188;2022-10-15T06:30:00;100262.09;;;13.09;100.00
829;BME280;396;52.558;13.188;2022-10-15T06:32:26;100269.09;;;13.19;100.00
829;BME280;396;52.558;13.188;2022-10-15T06:34:54;100259.97;;;13.23;100.00
829;BME280;396;52.558;13.188;2022-10-15T06:37:20;100263.34;;;13.29;100.00
829;BME280;396;52.558;13.188;2022-10-15T06:39:47;100267.97;;;13.28;100.00
829;BME280;396;52.558;13.188;2022-10-15T06:42:13;100267.50;;;13.26;100.00
829;BME280;396;52.558;13.188;2022-10-15T06:44:40;100274.22;;;13.29;100.00
829;BME280;396;52.558;13.188;2022-10-15T06:47:06;100273.53;;;13.32;100.00
829;BME280;396;52.558;13.188;2022-10-15T06:49:33;100277.34;;;13.40;100.00
829;BME280;396;52.558;13.188;2022-10-15T06:52:01;100287.56;;;13.51;100.00
829;BME280;396;52.558;13.188;2022-10-15T06:54:27;100281.88;;;13.65;100.00
829;BME280;396;52.558;13.188;2022-10-15T06:56:53;100290.44;;;13.76;100.00
829;BME280;396;52.558;13.188;2022-10-15T06:59:20;100295.19;;;13.87;100.00
829;BME280;396;52.558;13.188;2022-10-15T07:01:47;100295.59;;;13.98;100.00
829;BME280;396;52.558;13.188;2022-10-15T07:04:13;100294.41;;;14.08;100.00
829;BME280;396;52.558;13.188;2022-10-15T07:06:39;100299.91;;;14.20;100.00
829;BME280;396;52.558;13.188;2022-10-15T07:09:07;100309.97;;;14.28;100.00
829;BME280;396;52.558;13.188;2022-10-15T07:11:34;100310.88;;;14.32;100.00
829;BME280;396;52.558;13.188;2022-10-15T07:14:00;100313.41;;;14.37;100.00
829;BME280;396;52.558;13.188;2022-10-15T07:16:27;100317.84;;;14.42;100.00
829;BME280;396;52.558;13.188;2022-10-15T07:18:53;100315.25;;;14.46;100.00
829;BME280;396;52.558;13.188;2022-10-15T07:21:19;100311.56;;;14.50;100.00
829;BME280;396;52.558;13.188;2022-10-15T07:23:46;100312.94;;;14.56;100.00
829;BME280;396;52.558;13.188;2022-10-15T07:26:14;100313.56;;;14.62;100.00
829;BME280;396;52.558;13.188;2022-10-15T07:28:40;100308.78;;;14.59;100.00
829;BME280;396;52.558;13.188;2022-10-15T07:31:07;100305.69;;;14.60;100.00
829;BME280;396;52.558;13.188;2022-10-15T07:33:34;100310.84;;;14.62;100.00
829;BME280;396;52.558;13.188;2022-10-15T07:36:01;100310.84;;;14.62;100.00
829;BME280;396;52.558;13.188;2022-10-15T07:38:28;100310.34;;;14.60;100.00
829;BME280;396;52.558;13.188;2022-10-15T07:40:57;100310.84;;;14.62;100.00
829;BME280;396;52.558;13.188;2022-10-15T07:43:25;100314.50;;;14.66;100.00
829;BME280;396;52.558;13.188;2022-10-15T07:45:52;100313.81;;;14.69;100.00
829;BME280;396;52.558;13.188;2022-10-15T07:48:18;100311.69;;;14.75;100.00
829;BME280;396;52.558;13.188;2022-10-15T07:50:45;100308.59;;;14.76;100.00
829;BME280;396;52.558;13.188;2022-10-15T07:53:11;100307.03;;;14.75;100.00
829;BME280;396;52.558;13.188;2022-10-15T07:55:38;100308.59;;;14.76;100.00
829;BME280;396;52.558;13.188;2022-10-15T07:58:05;100306.59;;;14.85;100.00
829;BME280;396;52.558;13.188;2022-10-15T08:00:33;100310.69;;;14.92;100.00
829;BME280;396;52.558;13.188;2022-10-15T08:03:00;100314.81;;;14.98;100.00
829;BME280;396;52.558;13.188;2022-10-15T08:05:26;100312.78;;;15.07;100.00
829;BME280;396;52.558;13.188;2022-10-15T08:07:53;100317.00;;;15.17;100.00
829;BME280;396;52.558;13.188;2022-10-15T08:10:19;100316.78;;;15.22;100.00
829;BME280;396;52.558;13.188;2022-10-15T08:12:46;100322.38;;;15.25;100.00
829;BME280;396;52.558;13.188;2022-10-15T08:15:12;100326.25;;;15.36;100.00
829;BME280;396;52.558;13.188;2022-10-15T08:17:40;100325.13;;;15.50;100.00
829;BME280;396;52.558;13.188;2022-10-15T08:20:07;100337.19;;;15.61;100.00
829;BME280;396;52.558;13.188;2022-10-15T08:22:33;100328.00;;;15.66;100.00
829;BME280;396;52.558;13.188;2022-10-15T08:25:00;100329.94;;;15.77;100.00
829;BME280;396;52.558;13.188;2022-10-15T08:27:26;100335.06;;;15.91;100.00
829;BME280;396;52.558;13.188;2022-10-15T08:29:53;100339.13;;;16.09;100.00
829;BME280;396;52.558;13.188;2022-10-15T08:32:19;100340.44;;;16.28;100.00
829;BME280;396;52.558;13.188;2022-10-15T08:34:47;100344.97;;;16.48;100.00
829;BME280;396;52.558;13.188;2022-10-15T08:37:14;100343.41;;;16.63;100.00
829;BME280;396;52.558;13.188;2022-10-15T08:39:40;100342.25;;;16.76;100.00
829;BME280;396;52.558;13.188;2022-10-15T08:42:14;100341.25;;;16.97;97.84
829;BME280;396;52.558;13.188;2022-10-15T08:44:45;100343.63;;;16.98;97.98
829;BME280;396;52.558;13.188;2022-10-15T08:47:27;100349.47;;;17.12;97.88
829;BME280;396;52.558;13.188;2022-10-15T08:49:57;100345.78;;;17.21;97.48
829;BME280;396;52.558;13.188;2022-10-15T08:52:28;100348.63;;;17.24;96.54
829;BME280;396;52.558;13.188;2022-10-15T08:54:59;100348.00;;;17.15;95.43
829;BME280;396;52.558;13.188;2022-10-15T08:57:35;100356.03;;;17.24;94.88
829;BME280;396;52.558;13.188;2022-10-15T09:00:12;100355.00;;;17.28;95.33
829;BME280;396;52.558;13.188;2022-10-15T09:02:47;100365.41;;;17.38;94.66
829;BME280;396;52.558;13.188;2022-10-15T09:05:26;100353.84;;;17.29;94.43
829;BME280;396;52.558;13.188;2022-10-15T09:07:57;100362.84;;;17.30;94.45
829;BME280;396;52.558;13.188;2022-10-15T09:10:31;100358.44;;;17.41;94.64
829;BME280;396;52.558;13.188;2022-10-15T09:13:03;100363.75;;;17.50;93.34
829;BME280;396;52.558;13.188;2022-10-15T09:15:36;100350.94;;;17.54;93.84
829;BME280;396;52.558;13.188;2022-10-15T09:18:10;100359.31;;;17.61;93.70
829;BME280;396;52.558;13.188;2022-10-15T09:20:44;100358.44;;;17.57;92.83
829;BME280;396;52.558;13.188;2022-10-15T09:23:16;100358.19;;;17.62;92.91
829;BME280;396;52.558;13.188;2022-10-15T09:25:44;100364.09;;;17.64;91.90
829;BME280;396;52.558;13.188;2022-10-15T09:28:16;100357.31;;;17.58;91.43
829;BME280;396;52.558;13.188;2022-10-15T09:30:47;100369.56;;;17.48;93.07
829;BME280;396;52.558;13.188;2022-10-15T09:33:25;100363.66;;;17.62;92.36
829;BME280;396;52.558;13.188;2022-10-15T09:36:03;100372.13;;;17.73;91.88
829;BME280;396;52.558;13.188;2022-10-15T09:38:40;100376.16;;;17.75;91.15
829;BME280;396;52.558;13.188;2022-10-15T09:41:18;100369.84;;;17.75;91.19
829;BME280;396;52.558;13.188;2022-10-15T09:43:49;100376.78;;;17.84;91.39
829;BME280;396;52.558;13.188;2022-10-15T09:46:16;100372.16;;;17.88;90.30
829;BME280;396;52.558;13.188;2022-10-15T09:48:46;100380.72;;;17.87;89.95
829;BME280;396;52.558;13.188;2022-10-15T09:51:23;100371.81;;;17.90;90.40
829;BME280;396;52.558;13.188;2022-10-15T09:53:59;100375.50;;;17.98;90.38
829;BME280;396;52.558;13.188;2022-10-15T09:56:31;100370.00;;;18.13;89.76
829;BME280;396;52.558;13.188;2022-10-15T09:59:01;100377.06;;;18.14;88.14
829;BME280;396;52.558;13.188;2022-10-15T10:01:28;100378.56;;;18.12;89.04
829;BME280;396;52.558;13.188;2022-10-15T10:04:10;100382.34;;;18.23;89.13
829;BME280;396;52.558;13.188;2022-10-15T10:06:44;100382.50;;;18.30;89.19
829;BME280;396;52.558;13.188;2022-10-15T10:09:16;100382.94;;;18.32;89.28
829;BME280;396;52.558;13.188;2022-10-15T10:11:46;100385.53;;;18.25;88.97
829;BME280;396;52.558;13.188;2022-10-15T10:14:21;100388.97;;;18.22;89.11
829;BME280;396;52.558;13.188;2022-10-15T10:17:14;100384.81;;;18.28;89.11
829;BME280;396;52.558;13.188;2022-10-15T10:19:42;100386.91;;;18.35;89.41
829;BME280;396;52.558;13.188;2022-10-15T10:22:15;100388.28;;;18.45;88.18
829;BME280;396;52.558;13.188;2022-10-15T10:24:43;100389.63;;;18.51;87.66
829;BME280;396;52.558;13.188;2022-10-15T10:27:19;100391.91;;;18.49;88.72
829;BME280;396;52.558;13.188;2022-10-15T10:29:49;100374.81;;;18.55;88.45
829;BME280;396;52.558;13.188;2022-10-15T10:32:19;100386.72;;;18.63;88.19
829;BME280;396;52.558;13.188;2022-10-15T10:34:46;100389.19;;;18.68;87.10
829;BME280;396;52.558;13.188;2022-10-15T10:37:14;100383.66;;;18.84;86.86
829;BME280;396;52.558;13.188;2022-10-15T10:39:41;100390.09;;;18.92;86.93
829;BME280;396;52.558;13.188;2022-10-15T10:42:24;100392.09;;;19.14;86.13
829;BME280;396;52.558;13.188;2022-10-15T10:44:52;100387.56;;;19.25;84.62
829;BME280;396;52.558;13.188;2022-10-15T10:47:20;100393.94;;;19.29;84.48
829;BME280;396;52.558;13.188;2022-10-15T10:49:49;100390.03;;;19.30;84.71
829;BME280;396;52.558;13.188;2022-10-15T10:52:25;100398.56;;;19.25;84.63
829;BME280;396;52.558;13.188;2022-10-15T10:54:59;100398.16;;;19.23;83.86
829;BME280;396;52.558;13.188;2022-10-15T10:57:33;100393.91;;;19.06;84.13
829;BME280;396;52.558;13.188;2022-10-15T11:00:04;100389.41;;;19.18;84.54
829;BME280;396;52.558;13.188;2022-10-15T11:02:31;100390.22;;;19.18;84.47
829;BME280;396;52.558;13.188;2022-10-15T11:05:00;100390.22;;;19.18;83.49
829;BME280;396;52.558;13.188;2022-10-15T11:07:34;100394.16;;;19.21;84.25
829;BME280;396;52.558;13.188;2022-10-15T11:10:07;100387.31;;;19.11;84.33
829;BME280;396;52.558;13.188;2022-10-15T11:12:51;100388.78;;;19.05;84.17
829;BME280;396;52.558;13.188;2022-10-15T11:15:29;100394.56;;;19.00;84.20
829;BME280;396;52.558;13.188;2022-10-15T11:18:07;100381.81;;;19.11;83.98
829;BME280;396;52.558;13.188;2022-10-15T11:20:47;100392.50;;;19.16;83.83
829;BME280;396;52.558;13.188;2022-10-15T11:23:23;100384.88;;;19.71;82.33
829;BME280;396;52.558;13.188;2022-10-15T11:26:01;100380.19;;;20.25;79.44
829;BME280;396;52.558;13.188;2022-10-15T11:28:50;100384.03;;;20.47;79.11
829;BME280;396;52.558;13.188;2022-10-15T11:31:22;100388.34;;;21.08;76.63
829;BME280;396;52.558;13.188;2022-10-15T11:34:00;100385.88;;;21.81;71.87
829;BME280;396;52.558;13.188;2022-10-15T11:36:49;100376.13;;;22.49;67.47
829;BME280;396;52.558;13.188;2022-10-15T11:39:33;100377.97;;;23.25;67.01
829;BME280;396;52.558;13.188;2022-10-15T11:42:08;100377.22;;;23.85;64.94
829;BME280;396;52.558;13.188;2022-10-15T11:44:54;100387.19;;;24.92;59.13
829;BME280;396;52.558;13.188;2022-10-15T11:47:31;100378.19;;;25.47;54.95
829;BME280;396;52.558;13.188;2022-10-15T11:50:15;100385.47;;;26.20;54.17
829;BME280;396;52.558;13.188;2022-10-15T11:52:57;100387.88;;;26.56;51.87
829;BME280;396;52.558;13.188;2022-10-15T11:55:33;100380.22;;;25.39;54.16
829;BME280;396;52.558;13.188;2022-10-15T11:58:08;100382.66;;;24.42;58.81
829;BME280;396;52.558;13.188;2022-10-15T12:00:40;100386.19;;;25.38;58.29
829;BME280;396;52.558;13.188;2022-10-15T12:03:13;100379.16;;;26.57;53.67
829;BME280;396;52.558;13.188;2022-10-15T12:05:44;100376.91;;;26.79;51.62
829;BME280;396;52.558;13.188;2022-10-15T12:08:12;100382.84;;;26.06;53.94
829;BME280;396;52.558;13.188;2022-10-15T12:10:53;100379.66;;;24.96;55.62
829;BME280;396;52.558;13.188;2022-10-15T12:13:26;100384.16;;;24.65;58.18
829;BME280;396;52.558;13.188;2022-10-15T12:16:05;100373.25;;;23.94;58.71
829;BME280;396;52.558;13.188;2022-10-15T12:18:37;100379.91;;;23.28;61.72
829;BME280;396;52.558;13.188;2022-10-15T12:27:26;100372.78;;;22.19;65.80
829;BME280;396;52.558;13.188;2022-10-15T12:30:18;100370.34;;;21.58;68.58
829;BME280;396;52.558;13.188;2022-10-15T12:32:46;100371.88;;;21.15;70.09
829;BME280;396;52.558;13.188;2022-10-15T12:35:27;100366.22;;;20.67;72.13
829;BME280;396;52.558;13.188;2022-10-15T12:38:15;100359.50;;;20.34;73.97
829;BME280;396;52.558;13.188;2022-10-15T12:40:43;100368.63;;;20.12;75.74
829;BME280;396;52.558;13.188;2022-10-15T12:43:14;100362.16;;;20.01;77.07
829;BME280;396;52.558;13.188;2022-10-15T12:45:49;100371.84;;;19.91;77.82
829;BME280;396;52.558;13.188;2022-10-15T12:48:27;100368.63;;;19.85;77.23
829;BME280;396;52.558;13.188;2022-10-15T12:54:39;100357.72;;;19.66;79.49
829;BME280;396;52.558;13.188;2022-10-15T13:00:27;100362.06;;;19.48;79.69
829;BME280;396;52.558;13.188;2022-10-15T13:02:54;100353.97;;;19.32;80.83
829;BME280;396;52.558;13.188;2022-10-15T13:05:25;100351.22;;;19.32;80.88
829;BME280;396;52.558;13.188;2022-10-15T13:07:52;100349.63;;;19.31;81.76
829;BME280;396;52.558;13.188;2022-10-15T13:10:25;100348.94;;;19.37;82.18
829;BME280;396;52.558;13.188;2022-10-15T13:12:55;100349.81;;;19.41;82.22
829;BME280;396;52.558;13.188;2022-10-15T13:15:24;100344.44;;;19.49;82.27
829;BME280;396;52.558;13.188;2022-10-15T13:17:53;100336.84;;;19.61;82.92
829;BME280;396;52.558;13.188;2022-10-15T13:20:30;100346.28;;;19.64;82.17
829;BME280;396;52.558;13.188;2022-10-15T13:23:09;100342.09;;;19.70;80.91
829;BME280;396;52.558;13.188;2022-10-15T13:25:36;100343.16;;;19.65;80.23
829;BME280;396;52.558;13.188;2022-10-15T13:31:07;100345.09;;;19.88;80.03
829;BME280;396;52.558;13.188;2022-10-15T13:33:40;100335.69;;;19.89;79.65
829;BME280;396;52.558;13.188;2022-10-15T13:36:12;100327.31;;;19.82;79.58
829;BME280;396;52.558;13.188;2022-10-15T13:38:41;100346.50;;;19.78;80.37
829;BME280;396;52.558;13.188;2022-10-15T13:41:08;100337.53;;;19.81;80.35
829;BME280;396;52.558;13.188;2022-10-15T13:43:34;100339.91;;;19.83;80.71
829;BME280;396;52.558;13.188;2022-10-15T13:46:01;100346.25;;;19.87;80.10